createdAt,value
2022-11-30T00:01:56.526Z,74.68
2022-11-30T00:04:24.566Z,61.45
2022-11-30T00:06:56.774Z,123.38
2022-11-30T00:09:24.960Z,75.90
2022-11-30T00:11:54.258Z,52.90
2022-11-30T00:14:22.307Z,50.20
2022-11-30T00:16:50.372Z,47.95
2022-11-30T00:19:18.338Z,44.35
2022-11-30T00:21:46.228Z,53.67
2022-11-30T00:24:14.344Z,43.78
2022-11-30T00:26:42.416Z,49.33
2022-11-30T00:29:12.897Z,55.67
2022-11-30T00:31:40.798Z,49.70
2022-11-30T00:34:08.875Z,47.95
2022-11-30T00:36:36.753Z,60.20
2022-11-30T00:39:04.704Z,51.05
2022-11-30T00:41:32.683Z,41.60
2022-11-30T00:44:00.635Z,47.20
2022-11-30T00:46:29.918Z,44.85
2022-11-30T00:48:57.887Z,53.13
2022-11-30T00:51:25.805Z,50.35
2022-11-30T00:53:53.719Z,77.65
2022-11-30T00:56:22.993Z,65.53
2022-11-30T00:58:52.695Z,68.28
2022-11-30T01:01:20.697Z,54.75
2022-11-30T01:03:49.992Z,48.63
2022-11-30T01:06:17.988Z,53.10
2022-11-30T01:08:45.928Z,53.70
2022-11-30T01:11:16.561Z,51.33
2022-11-30T01:13:44.502Z,43.20
2022-11-30T01:16:15.670Z,45.38
2022-11-30T01:18:44.145Z,44.07
2022-11-30T01:21:16.323Z,41.27
2022-11-30T01:23:44.708Z,35.35
2022-11-30T01:26:13.092Z,45.25
2022-11-30T01:28:41.834Z,42.47
2022-11-30T01:31:11.883Z,46.97
2022-11-30T01:33:40.835Z,42.25
2022-11-30T01:36:12.190Z,33.45
2022-11-30T01:38:43.491Z,35.50
2022-11-30T01:41:13.579Z,53.42
2022-11-30T01:43:43.495Z,48.90
2022-11-30T01:46:35.309Z,48.20
2022-11-30T01:49:11.339Z,45.50
2022-11-30T01:51:41.975Z,44.07
2022-11-30T01:54:13.947Z,51.03
2022-11-30T01:56:46.024Z,65.68
2022-11-30T01:59:14.626Z,60.45
2022-11-30T02:01:42.670Z,59.58
2022-11-30T02:04:15.530Z,47.67
2022-11-30T02:06:44.246Z,36.55
2022-11-30T02:09:15.611Z,34.85
2022-11-30T02:11:43.702Z,36.30
2022-11-30T02:14:24.189Z,45.75
2022-11-30T02:17:02.583Z,39.58
2022-11-30T02:19:59.153Z,43.83
2022-11-30T02:22:37.392Z,46.87
2022-11-30T02:25:15.954Z,48.83
2022-11-30T02:27:57.386Z,64.28
2022-11-30T02:30:27.190Z,52.40
2022-11-30T02:32:59.470Z,49.92
2022-11-30T02:35:31.147Z,48.92
2022-11-30T02:38:01.022Z,44.72
2022-11-30T02:40:29.121Z,42.45
2022-11-30T02:43:00.482Z,37.33
2022-11-30T02:45:34.389Z,38.55
2022-11-30T02:48:08.845Z,36.08
2022-11-30T02:50:40.832Z,43.72
2022-11-30T02:53:10.060Z,36.88
2022-11-30T02:55:37.986Z,40.23
2022-11-30T02:58:06.010Z,53.17
2022-11-30T03:00:35.292Z,43.67
2022-11-30T03:03:03.365Z,42.90
2022-11-30T03:05:31.333Z,42.53
2022-11-30T03:07:59.516Z,47.80
2022-11-30T03:10:28.095Z,42.20
2022-11-30T03:12:58.858Z,43.43
2022-11-30T03:15:26.871Z,41.50
2022-11-30T03:17:56.450Z,35.80
2022-11-30T03:20:24.513Z,37.50
2022-11-30T03:22:52.493Z,39.45
2022-11-30T03:25:20.477Z,43.90
2022-11-30T03:27:48.431Z,37.67
2022-11-30T03:30:17.240Z,37.63
2022-11-30T03:32:45.205Z,39.08
2022-11-30T03:35:14.804Z,44.05
2022-11-30T03:37:42.857Z,36.22
2022-11-30T03:40:12.569Z,35.43
2022-11-30T03:42:40.674Z,37.63
2022-11-30T03:45:09.016Z,39.55
2022-11-30T03:47:37.732Z,40.13
2022-11-30T03:50:06.611Z,36.25
2022-11-30T03:52:35.877Z,38.20
2022-11-30T03:55:04.257Z,42.42
2022-11-30T03:57:32.157Z,38.38
2022-11-30T04:00:00.090Z,38.83
2022-11-30T04:02:28.213Z,34.00
2022-11-30T04:04:56.416Z,43.65
2022-11-30T04:07:24.441Z,39.58
2022-11-30T04:09:53.782Z,42.97
2022-11-30T04:12:21.673Z,46.90
2022-11-30T04:14:49.745Z,46.70
2022-11-30T04:17:17.790Z,40.17
2022-11-30T04:19:45.719Z,45.17
2022-11-30T04:22:13.577Z,43.40
2022-11-30T04:24:41.564Z,40.83
2022-11-30T04:27:11.077Z,42.88
2022-11-30T04:29:39.050Z,42.75
2022-11-30T04:32:07.226Z,46.45
2022-11-30T04:34:35.176Z,45.17
2022-11-30T04:37:03.087Z,48.28
2022-11-30T04:39:33.687Z,46.33
2022-11-30T04:42:01.591Z,44.22
2022-11-30T04:44:30.875Z,53.38
2022-11-30T04:46:58.862Z,49.53
2022-11-30T04:49:26.840Z,58.22
2022-11-30T04:51:54.779Z,56.15
2022-11-30T04:54:22.692Z,59.63
2022-11-30T04:56:50.639Z,50.72
2022-11-30T04:59:18.558Z,54.58
2022-11-30T05:01:47.932Z,58.33
2022-11-30T05:04:16.131Z,65.95
2022-11-30T05:06:44.099Z,56.85
2022-11-30T05:09:12.012Z,68.28
2022-11-30T05:11:39.916Z,62.90
2022-11-30T05:14:07.835Z,62.90
2022-11-30T05:16:35.789Z,61.83
2022-11-30T05:19:05.252Z,59.45
2022-11-30T05:21:33.237Z,64.90
2022-11-30T05:24:01.220Z,88.07
2022-11-30T05:26:29.152Z,74.85
2022-11-30T05:28:57.060Z,92.20
2022-11-30T05:31:25.074Z,93.10
2022-11-30T05:33:53.532Z,100.53
2022-11-30T05:36:23.362Z,93.38
2022-11-30T05:38:51.310Z,90.53
2022-11-30T05:41:19.308Z,94.88
2022-11-30T05:43:47.240Z,133.57
2022-11-30T05:46:15.233Z,84.50
2022-11-30T05:48:43.182Z,111.20
2022-11-30T05:51:13.270Z,67.13
2022-11-30T05:53:43.263Z,79.90
2022-11-30T05:56:13.758Z,104.75
2022-11-30T05:58:42.132Z,79.40
2022-11-30T06:01:17.806Z,75.80
2022-11-30T06:03:45.947Z,114.05
2022-11-30T06:06:13.920Z,122.43
2022-11-30T06:08:43.644Z,108.28
2022-11-30T06:11:12.186Z,94.82
2022-11-30T06:13:40.909Z,126.75
2022-11-30T06:16:10.002Z,142.63
2022-11-30T06:18:38.585Z,111.63
2022-11-30T06:21:09.525Z,110.45
2022-11-30T06:23:37.886Z,129.77
2022-11-30T06:26:08.701Z,119.80
2022-11-30T06:28:37.006Z,138.90
2022-11-30T06:31:07.231Z,130.00
2022-11-30T06:33:37.095Z,163.90
2022-11-30T06:36:05.727Z,156.90
2022-11-30T06:38:33.708Z,163.10
2022-11-30T06:41:06.172Z,119.33
2022-11-30T06:43:36.720Z,161.18
2022-11-30T06:46:05.803Z,148.07
2022-11-30T06:48:34.415Z,105.95
2022-11-30T06:51:02.596Z,136.88
2022-11-30T06:53:30.512Z,131.00
2022-11-30T06:55:58.429Z,131.02
2022-11-30T06:58:26.321Z,132.45
2022-11-30T07:00:55.736Z,154.07
2022-11-30T07:03:23.659Z,167.20
2022-11-30T07:05:51.563Z,148.40
2022-11-30T07:08:19.463Z,119.47
2022-11-30T07:10:48.450Z,135.40
2022-11-30T07:13:18.307Z,98.15
2022-11-30T07:15:46.820Z,102.43
2022-11-30T07:18:16.107Z,106.25
2022-11-30T07:20:44.273Z,95.60
2022-11-30T07:23:29.954Z,114.57
2022-11-30T07:26:10.348Z,107.30
2022-11-30T07:28:39.881Z,100.22
2022-11-30T07:31:16.698Z,103.15
2022-11-30T07:33:46.338Z,116.25
2022-11-30T07:36:14.383Z,117.38
2022-11-30T07:38:42.382Z,94.18
2022-11-30T07:41:10.683Z,97.15
2022-11-30T07:43:38.822Z,82.53
2022-11-30T07:46:07.644Z,89.32
2022-11-30T07:48:35.756Z,104.55
2022-11-30T07:51:06.229Z,119.47
2022-11-30T07:53:34.209Z,126.28
2022-11-30T07:56:06.466Z,129.70
2022-11-30T07:58:34.731Z,126.78
2022-11-30T08:01:04.369Z,123.97
2022-11-30T08:03:36.800Z,132.73
2022-11-30T08:06:09.013Z,144.65
2022-11-30T08:08:38.819Z,131.60
2022-11-30T08:11:08.064Z,123.57
2022-11-30T08:13:36.038Z,171.85
2022-11-30T08:16:04.784Z,158.00
2022-11-30T08:18:32.773Z,126.18
2022-11-30T08:21:01.755Z,157.93
2022-11-30T08:23:31.210Z,156.77
2022-11-30T08:26:04.540Z,157.90
2022-11-30T08:28:32.518Z,140.13
2022-11-30T08:31:01.287Z,142.18
2022-11-30T08:33:30.878Z,198.57
2022-11-30T08:36:07.526Z,135.38
2022-11-30T08:38:37.066Z,118.85
2022-11-30T08:41:05.769Z,137.57
2022-11-30T08:43:33.811Z,117.97
2022-11-30T08:46:08.385Z,113.65
2022-11-30T08:48:49.579Z,112.75
2022-11-30T08:51:19.416Z,125.50
2022-11-30T08:53:49.505Z,102.23
2022-11-30T08:56:19.054Z,94.97
2022-11-30T08:58:47.873Z,99.78
2022-11-30T09:01:17.616Z,97.22
2022-11-30T09:03:46.605Z,114.18
2022-11-30T09:06:16.380Z,104.18
2022-11-30T09:08:46.289Z,100.22
2022-11-30T09:11:17.235Z,85.07
2022-11-30T09:13:46.065Z,89.75
2022-11-30T09:16:15.196Z,97.57
2022-11-30T09:18:44.115Z,99.75
2022-11-30T09:21:15.141Z,87.70
2022-11-30T09:23:43.189Z,89.33
2022-11-30T09:26:12.747Z,76.32
2022-11-30T09:28:42.367Z,86.70
2022-11-30T09:31:13.644Z,69.57
2022-11-30T09:33:41.813Z,68.32
2022-11-30T09:36:12.104Z,73.77
2022-11-30T09:38:42.451Z,62.30
2022-11-30T09:41:27.923Z,69.88
2022-11-30T09:44:04.512Z,79.05
2022-11-30T09:46:40.543Z,63.40
2022-11-30T09:49:20.290Z,62.53
2022-11-30T09:51:49.745Z,65.30
2022-11-30T09:54:21.797Z,63.80
2022-11-30T09:56:50.566Z,64.50
2022-11-30T09:59:24.822Z,64.38
2022-11-30T10:01:56.984Z,65.25
2022-11-30T10:04:27.219Z,72.45
2022-11-30T10:07:08.368Z,74.93
2022-11-30T10:10:02.886Z,66.97
2022-11-30T10:12:41.022Z,55.42
2022-11-30T10:15:18.328Z,65.60
2022-11-30T10:17:54.974Z,66.37
2022-11-30T10:20:37.417Z,57.65
2022-11-30T10:23:18.433Z,57.13
2022-11-30T10:25:55.558Z,69.10
2022-11-30T10:28:52.096Z,57.75
2022-11-30T10:31:30.076Z,67.90
2022-11-30T10:34:04.420Z,63.67
2022-11-30T10:36:37.314Z,71.28
2022-11-30T10:39:20.427Z,63.63
2022-11-30T10:41:52.095Z,76.90
2022-11-30T10:44:23.180Z,67.40
2022-11-30T10:46:59.153Z,69.10
2022-11-30T10:49:29.886Z,79.47
2022-11-30T10:52:02.211Z,73.20
2022-11-30T10:54:31.536Z,80.55
2022-11-30T10:57:01.797Z,74.78
2022-11-30T10:59:39.744Z,92.72
2022-11-30T11:02:37.167Z,81.95
2022-11-30T11:05:23.735Z,86.80
2022-11-30T11:08:05.775Z,101.53
2022-11-30T11:10:37.486Z,90.35
2022-11-30T11:13:06.112Z,92.35
2022-11-30T11:15:35.288Z,99.82
2022-11-30T11:18:27.295Z,101.40
2022-11-30T11:21:07.859Z,100.70
2022-11-30T11:23:39.086Z,101.68
2022-11-30T11:26:08.662Z,102.20
2022-11-30T11:28:44.484Z,81.70
2022-11-30T11:31:20.699Z,111.80
2022-11-30T11:33:55.118Z,91.30
2022-11-30T11:36:28.907Z,86.20
2022-11-30T11:38:57.873Z,74.17
2022-11-30T11:41:29.013Z,80.72
2022-11-30T11:44:02.273Z,72.38
2022-11-30T11:46:31.999Z,64.43
2022-11-30T11:49:04.714Z,59.03
2022-11-30T11:51:34.465Z,54.80
2022-11-30T11:54:07.638Z,45.63
2022-11-30T11:56:37.138Z,51.28
2022-11-30T11:59:15.522Z,42.60
2022-11-30T12:01:51.865Z,48.25
2022-11-30T12:04:35.120Z,51.67
2022-11-30T12:07:17.898Z,55.00
2022-11-30T12:09:56.321Z,53.80
2022-11-30T12:12:24.509Z,61.83
2022-11-30T12:14:52.437Z,53.05
2022-11-30T12:17:34.269Z,62.40
2022-11-30T12:20:14.316Z,57.10
2022-11-30T12:22:57.705Z,51.33
2022-11-30T12:25:28.118Z,58.50
2022-11-30T12:28:06.543Z,44.30
2022-11-30T12:30:44.837Z,48.80
2022-11-30T12:33:17.320Z,46.70
2022-11-30T12:35:59.352Z,59.95
2022-11-30T12:38:43.101Z,51.03
2022-11-30T12:41:26.673Z,48.60
2022-11-30T12:44:04.201Z,55.53
2022-11-30T12:46:39.463Z,50.95
2022-11-30T12:49:22.677Z,47.95
2022-11-30T12:51:59.584Z,61.33
2022-11-30T12:54:34.239Z,49.65
2022-11-30T12:57:11.781Z,46.20
2022-11-30T12:59:48.301Z,46.72
2022-11-30T13:02:34.684Z,47.40
2022-11-30T13:05:07.201Z,62.60
2022-11-30T13:07:43.959Z,59.80
2022-11-30T13:10:22.618Z,49.38
2022-11-30T13:12:53.609Z,57.50
2022-11-30T13:15:24.633Z,46.20
2022-11-30T13:17:53.865Z,44.65
2022-11-30T13:20:29.081Z,48.10
2022-11-30T13:23:02.188Z,45.38
2022-11-30T13:26:06.955Z,46.00
2022-11-30T13:28:33.194Z,47.55
2022-11-30T13:31:06.807Z,50.25
2022-11-30T13:33:49.284Z,47.87
2022-11-30T13:36:43.452Z,64.85
2022-11-30T13:39:23.860Z,61.55
2022-11-30T13:42:11.099Z,60.30
2022-11-30T13:44:41.386Z,59.57
2022-11-30T13:47:19.305Z,57.67
2022-11-30T13:49:54.982Z,64.37
2022-11-30T13:53:10.835Z,53.42
2022-11-30T13:56:12.347Z,46.45
2022-11-30T13:59:19.065Z,51.78
2022-11-30T14:01:47.073Z,45.22
2022-11-30T14:04:46.536Z,42.90
2022-11-30T14:07:36.260Z,46.50
2022-11-30T14:10:05.890Z,38.28
2022-11-30T14:13:00.590Z,39.65
2022-11-30T14:15:54.605Z,37.33
2022-11-30T14:18:42.160Z,35.25
2022-11-30T14:21:25.955Z,37.22
2022-11-30T14:23:58.571Z,35.05
2022-11-30T14:26:31.289Z,36.00
2022-11-30T14:29:04.411Z,40.17
2022-11-30T14:31:40.125Z,42.08
2022-11-30T14:34:15.718Z,43.28
2022-11-30T14:36:47.265Z,45.63
2022-11-30T14:39:32.727Z,38.38
2022-11-30T14:42:00.962Z,42.65
2022-11-30T14:44:29.334Z,38.80
2022-11-30T14:46:58.800Z,38.35
2022-11-30T14:49:27.117Z,32.72
2022-11-30T14:52:00.072Z,34.85
2022-11-30T14:54:41.403Z,41.50
2022-11-30T14:57:19.239Z,47.22
2022-11-30T14:59:50.126Z,51.30
2022-11-30T15:02:31.484Z,57.70
2022-11-30T15:05:00.351Z,43.15
2022-11-30T15:07:29.736Z,35.20
2022-11-30T15:10:04.717Z,38.00
2022-11-30T15:12:33.421Z,39.05
2022-11-30T15:15:17.190Z,38.53
2022-11-30T15:17:55.735Z,36.08
2022-11-30T15:20:37.172Z,42.97
2022-11-30T15:23:14.320Z,39.33
2022-11-30T15:25:46.244Z,45.78
2022-11-30T15:28:18.991Z,48.58
2022-11-30T15:30:49.592Z,39.90
2022-11-30T15:33:22.111Z,48.83
2022-11-30T15:38:41.634Z,43.22
2022-11-30T15:41:19.502Z,45.63
2022-11-30T15:43:51.376Z,45.63
2022-11-30T15:46:34.480Z,39.63
2022-11-30T15:49:14.845Z,39.55
2022-11-30T15:51:46.089Z,35.92
2022-11-30T15:54:15.403Z,44.97
2022-11-30T15:56:57.045Z,38.50
2022-11-30T15:59:27.278Z,34.40
2022-11-30T16:02:02.154Z,28.48
2022-11-30T16:05:06.523Z,34.38
2022-11-30T16:07:39.079Z,39.50
2022-11-30T16:10:14.028Z,41.60
2022-11-30T16:12:44.592Z,30.50
2022-11-30T16:15:18.877Z,33.05
2022-11-30T16:17:46.869Z,33.15
2022-11-30T16:20:17.520Z,35.35
2022-11-30T16:22:47.345Z,39.08
2022-11-30T16:25:16.847Z,55.35
2022-11-30T16:27:45.455Z,33.13
2022-11-30T16:30:17.108Z,46.22
2022-11-30T16:32:45.357Z,37.75
2022-11-30T16:35:22.070Z,27.48
2022-11-30T16:37:50.549Z,31.65
2022-11-30T16:40:19.196Z,31.42
2022-11-30T16:42:49.351Z,26.00
2022-11-30T16:45:21.186Z,25.33
2022-11-30T16:47:49.500Z,22.67
2022-11-30T16:50:20.178Z,26.80
2022-11-30T16:52:48.251Z,25.35
2022-11-30T16:55:18.051Z,29.83
2022-11-30T16:57:46.934Z,32.10
2022-11-30T17:00:18.193Z,31.48
2022-11-30T17:02:50.862Z,29.48
2022-11-30T17:05:20.496Z,26.08
2022-11-30T17:07:48.551Z,24.48
2022-11-30T17:10:16.778Z,26.15
2022-11-30T17:12:44.703Z,25.00
2022-11-30T17:15:22.338Z,27.42
2022-11-30T17:17:50.706Z,27.23
2022-11-30T17:20:20.707Z,23.75
2022-11-30T17:22:48.624Z,20.80
2022-11-30T17:25:18.539Z,23.15
2022-11-30T17:27:46.796Z,23.08
2022-11-30T17:30:16.775Z,22.85
2022-11-30T17:32:44.896Z,24.00
2022-11-30T17:35:12.947Z,22.42
2022-11-30T17:37:42.254Z,23.23
2022-11-30T17:40:13.092Z,24.20
2022-11-30T17:42:41.236Z,26.60
2022-11-30T17:45:10.223Z,23.45
2022-11-30T17:47:38.717Z,28.48
2022-11-30T17:50:08.142Z,27.55
2022-11-30T17:52:36.372Z,30.52
2022-11-30T17:55:06.207Z,32.37
2022-11-30T17:57:34.164Z,29.83
2022-11-30T18:00:02.064Z,32.17
2022-11-30T18:02:32.994Z,30.92
2022-11-30T18:05:01.006Z,28.38
2022-11-30T18:07:29.064Z,29.70
2022-11-30T18:09:57.797Z,47.97
2022-11-30T18:12:27.127Z,30.73
2022-11-30T18:14:55.157Z,35.58
2022-11-30T18:17:23.113Z,57.95
2022-11-30T18:19:51.170Z,47.40
2022-11-30T18:22:19.137Z,45.13
2022-11-30T18:24:47.363Z,53.83
2022-11-30T18:27:15.510Z,46.13
2022-11-30T18:29:44.772Z,41.28
2022-11-30T18:32:12.774Z,44.28
2022-11-30T18:34:41.139Z,39.53
2022-11-30T18:37:09.142Z,42.60
2022-11-30T18:39:37.098Z,36.83
2022-11-30T18:42:05.090Z,42.67
2022-11-30T18:44:33.042Z,43.58
2022-11-30T18:47:02.341Z,43.70
2022-11-30T18:49:30.317Z,41.90
2022-11-30T18:51:58.385Z,40.97
2022-11-30T18:54:26.588Z,51.90
2022-11-30T18:56:54.672Z,54.33
2022-11-30T18:59:22.771Z,37.53
2022-11-30T19:01:51.878Z,42.53
2022-11-30T19:04:21.387Z,39.38
2022-11-30T19:06:49.376Z,43.17
2022-11-30T19:09:19.006Z,45.80
2022-11-30T19:11:47.339Z,39.80
2022-11-30T19:14:16.872Z,41.65
2022-11-30T19:16:46.312Z,50.70
2022-11-30T19:19:15.135Z,49.85
2022-11-30T19:21:47.864Z,39.33
2022-11-30T19:24:16.567Z,44.05
2022-11-30T19:26:44.572Z,45.05
2022-11-30T19:29:13.121Z,42.65
2022-11-30T19:31:41.178Z,39.75
2022-11-30T19:34:13.089Z,39.63
2022-11-30T19:36:41.955Z,35.97
2022-11-30T19:39:12.024Z,39.55
2022-11-30T19:41:40.014Z,35.97
2022-11-30T19:44:07.979Z,46.45
2022-11-30T19:46:35.971Z,42.63
2022-11-30T19:49:04.469Z,41.17
2022-11-30T19:51:32.918Z,38.30
2022-11-30T19:54:01.949Z,35.90
2022-11-30T19:56:34.532Z,38.75
2022-11-30T19:59:05.560Z,31.48
2022-11-30T20:01:35.263Z,38.33
2022-11-30T20:04:04.014Z,42.03
2022-11-30T20:06:35.685Z,40.90
2022-11-30T20:09:05.194Z,38.50
2022-11-30T20:11:34.600Z,42.75
2022-11-30T20:14:02.761Z,38.03
2022-11-30T20:16:30.797Z,40.97
2022-11-30T20:19:01.117Z,33.20
2022-11-30T20:21:31.074Z,34.05
2022-11-30T20:24:00.660Z,33.42
2022-11-30T20:26:30.949Z,33.83
2022-11-30T20:29:02.337Z,36.90
2022-11-30T20:31:32.019Z,37.22
2022-11-30T20:34:00.317Z,35.42
2022-11-30T20:36:28.635Z,35.80
2022-11-30T20:38:56.593Z,36.90
2022-11-30T20:41:25.783Z,32.13
2022-11-30T20:43:53.849Z,36.90
2022-11-30T20:46:25.565Z,32.95
2022-11-30T20:48:54.390Z,35.60
2022-11-30T20:51:32.839Z,36.85
2022-11-30T20:54:02.823Z,42.53
2022-11-30T20:56:31.199Z,45.80
2022-11-30T20:59:02.643Z,68.57
2022-11-30T21:01:32.066Z,43.72
2022-11-30T21:04:00.925Z,41.63
2022-11-30T21:06:29.391Z,39.17
2022-11-30T21:08:57.360Z,43.03
2022-11-30T21:11:25.976Z,41.10
2022-11-30T21:13:54.306Z,39.15
2022-11-30T21:16:28.057Z,36.63
2022-11-30T21:18:59.042Z,34.08
2022-11-30T21:21:28.475Z,39.28
2022-11-30T21:23:58.071Z,42.25
2022-11-30T21:26:28.043Z,46.28
2022-11-30T21:28:59.454Z,36.15
2022-11-30T21:31:27.723Z,48.38
2022-11-30T21:33:57.031Z,37.22
2022-11-30T21:36:24.969Z,36.08
2022-11-30T21:39:04.108Z,34.08
2022-11-30T21:41:34.114Z,31.33
2022-11-30T21:44:02.140Z,36.30
2022-11-30T21:46:30.181Z,36.13
2022-11-30T21:48:59.693Z,33.97
2022-11-30T21:51:29.864Z,38.30
2022-11-30T21:53:59.985Z,39.00
2022-11-30T21:56:29.364Z,33.08
2022-11-30T21:58:58.259Z,37.38
2022-11-30T22:01:28.423Z,42.60
2022-11-30T22:03:56.904Z,38.33
2022-11-30T22:06:27.920Z,41.40
2022-11-30T22:08:57.920Z,37.13
2022-11-30T22:11:25.905Z,36.53
2022-11-30T22:13:54.981Z,38.35
2022-11-30T22:16:28.732Z,38.75
2022-11-30T22:19:00.529Z,43.15
2022-11-30T22:21:31.734Z,40.15
2022-11-30T22:24:01.123Z,41.10
2022-11-30T22:26:30.699Z,37.28
2022-11-30T22:29:00.854Z,48.50
2022-11-30T22:31:30.626Z,36.00
2022-11-30T22:33:58.814Z,39.22
2022-11-30T22:36:29.620Z,36.97
2022-11-30T22:39:00.199Z,43.22
2022-11-30T22:41:29.123Z,42.22
2022-11-30T22:43:57.696Z,41.67
2022-11-30T22:46:27.429Z,36.55
2022-11-30T22:48:55.671Z,37.97
2022-11-30T22:51:25.980Z,36.40
2022-11-30T22:53:56.188Z,43.90
2022-11-30T22:56:25.924Z,37.58
2022-11-30T22:58:55.909Z,38.72
2022-11-30T23:01:25.514Z,38.40
2022-11-30T23:03:56.239Z,41.10
2022-11-30T23:06:25.626Z,40.65
2022-11-30T23:08:55.408Z,45.63
2022-11-30T23:11:25.275Z,39.13
2022-11-30T23:13:53.625Z,39.08
2022-11-30T23:16:22.397Z,39.45
2022-11-30T23:18:54.011Z,40.58
2022-11-30T23:21:25.956Z,35.97
2022-11-30T23:23:56.292Z,41.63
2022-11-30T23:26:26.200Z,39.53
2022-11-30T23:28:55.511Z,41.53
2022-11-30T23:31:34.063Z,42.65
2022-11-30T23:34:06.435Z,39.47
2022-11-30T23:36:34.855Z,50.55
2022-11-30T23:39:06.865Z,39.55
2022-11-30T23:41:35.271Z,34.97
2022-11-30T23:44:03.800Z,47.80
2022-11-30T23:46:32.260Z,41.20
2022-11-30T23:49:00.653Z,39.03
2022-11-30T23:51:28.750Z,38.65
2022-11-30T23:53:57.150Z,46.63
2022-11-30T23:56:26.417Z,38.65
2022-11-30T23:58:54.535Z,41.40
